sensor_id;sensor_type;location;lat;lon;timestamp;P1;durP1;ratioP1;P2;durP2;ratioP2
79454;SDS011;68900;52.134;5.420;2024-02-21T00:00:17;10.20;;;2.67;;
79454;SDS011;68900;52.134;5.420;2024-02-21T00:02:45;7.50;;;2.70;;
79454;SDS011;68900;52.134;5.420;2024-02-21T00:05:11;6.82;;;2.40;;
79454;SDS011;68900;52.134;5.420;2024-02-21T00:07:38;9.18;;;2.40;;
79454;SDS011;68900;52.134;5.420;2024-02-21T00:10:04;11.70;;;2.60;;
79454;SDS011;68900;52.134;5.420;2024-02-21T00:12:31;9.57;;;2.22;;
79454;SDS011;68900;52.134;5.420;2024-02-21T00:14:58;11.13;;;2.50;;
79454;SDS011;68900;52.134;5.420;2024-02-21T00:17:24;9.43;;;2.20;;
79454;SDS011;68900;52.134;5.420;2024-02-21T00:19:52;8.98;;;2.05;;
79454;SDS011;68900;52.134;5.420;2024-02-21T00:22:18;6.90;;;2.05;;
79454;SDS011;68900;52.134;5.420;2024-02-21T00:24:45;10.32;;;2.20;;
79454;SDS011;68900;52.134;5.420;2024-02-21T00:27:11;7.63;;;1.85;;
79454;SDS011;68900;52.134;5.420;2024-02-21T00:29:38;7.97;;;2.30;;
79454;SDS011;68900;52.134;5.420;2024-02-21T00:32:04;10.52;;;2.40;;
79454;SDS011;68900;52.134;5.420;2024-02-21T00:34:31;11.32;;;2.20;;
79454;SDS011;68900;52.134;5.420;2024-02-21T00:36:58;11.45;;;1.88;;
79454;SDS011;68900;52.134;5.420;2024-02-21T00:39:27;17.20;;;2.30;;
79454;SDS011;68900;52.134;5.420;2024-02-21T00:41:54;11.30;;;1.80;;
79454;SDS011;68900;52.134;5.420;2024-02-21T00:44:20;12.35;;;2.10;;
79454;SDS011;68900;52.134;5.420;2024-02-21T00:46:47;10.70;;;2.10;;
79454;SDS011;68900;52.134;5.420;2024-02-21T00:49:13;5.05;;;1.60;;
79454;SDS011;68900;52.134;5.420;2024-02-21T00:51:40;10.32;;;2.00;;
79454;SDS011;68900;52.134;5.420;2024-02-21T00:54:06;7.82;;;1.90;;
79454;SDS011;68900;52.134;5.420;2024-02-21T00:56:33;14.98;;;2.13;;
79454;SDS011;68900;52.134;5.420;2024-02-21T00:58:59;10.18;;;2.10;;
79454;SDS011;68900;52.134;5.420;2024-02-21T01:01:26;9.30;;;2.03;;
79454;SDS011;68900;52.134;5.420;2024-02-21T01:03:53;8.50;;;2.03;;
79454;SDS011;68900;52.134;5.420;2024-02-21T01:06:20;10.93;;;2.28;;
79454;SDS011;68900;52.134;5.420;2024-02-21T01:08:47;11.82;;;2.88;;
79454;SDS011;68900;52.134;5.420;2024-02-21T01:11:14;10.88;;;2.63;;
79454;SDS011;68900;52.134;5.420;2024-02-21T01:13:41;8.40;;;2.10;;
79454;SDS011;68900;52.134;5.420;2024-02-21T01:16:08;9.15;;;2.53;;
79454;SDS011;68900;52.134;5.420;2024-02-21T01:18:36;7.38;;;2.42;;
79454;SDS011;68900;52.134;5.420;2024-02-21T01:23:36;7.55;;;2.13;;
79454;SDS011;68900;52.134;5.420;2024-02-21T01:26:03;8.15;;;2.38;;
79454;SDS011;68900;52.134;5.420;2024-02-21T01:28:30;12.70;;;2.53;;
79454;SDS011;68900;52.134;5.420;2024-02-21T01:30:57;8.32;;;2.40;;
79454;SDS011;68900;52.134;5.420;2024-02-21T01:33:23;8.18;;;2.38;;
79454;SDS011;68900;52.134;5.420;2024-02-21T01:35:50;11.60;;;2.83;;
79454;SDS011;68900;52.134;5.420;2024-02-21T01:38:17;10.15;;;2.42;;
79454;SDS011;68900;52.134;5.420;2024-02-21T01:40:43;10.32;;;3.67;;
79454;SDS011;68900;52.134;5.420;2024-02-21T01:43:17;12.80;;;3.38;;
79454;SDS011;68900;52.134;5.420;2024-02-21T01:45:46;8.23;;;2.70;;
79454;SDS011;68900;52.134;5.420;2024-02-21T01:48:19;9.45;;;2.72;;
79454;SDS011;68900;52.134;5.420;2024-02-21T01:50:46;9.70;;;2.80;;
79454;SDS011;68900;52.134;5.420;2024-02-21T01:53:13;9.13;;;2.40;;
79454;SDS011;68900;52.134;5.420;2024-02-21T01:55:47;9.90;;;3.13;;
79454;SDS011;68900;52.134;5.420;2024-02-21T01:58:15;11.82;;;2.88;;
79454;SDS011;68900;52.134;5.420;2024-02-21T02:00:43;15.32;;;3.22;;
79454;SDS011;68900;52.134;5.420;2024-02-21T02:03:10;10.77;;;2.90;;
79454;SDS011;68900;52.134;5.420;2024-02-21T02:05:46;11.60;;;3.10;;
79454;SDS011;68900;52.134;5.420;2024-02-21T02:08:16;11.07;;;2.90;;
79454;SDS011;68900;52.134;5.420;2024-02-21T02:10:43;8.02;;;2.80;;
79454;SDS011;68900;52.134;5.420;2024-02-21T02:13:10;11.52;;;2.88;;
79454;SDS011;68900;52.134;5.420;2024-02-21T02:15:41;10.73;;;3.17;;
79454;SDS011;68900;52.134;5.420;2024-02-21T02:18:08;8.43;;;2.97;;
79454;SDS011;68900;52.134;5.420;2024-02-21T02:20:35;10.65;;;2.83;;
79454;SDS011;68900;52.134;5.420;2024-02-21T02:23:11;12.43;;;2.97;;
79454;SDS011;68900;52.134;5.420;2024-02-21T02:25:43;10.82;;;2.63;;
79454;SDS011;68900;52.134;5.420;2024-02-21T02:28:10;9.32;;;2.75;;
79454;SDS011;68900;52.134;5.420;2024-02-21T02:30:36;8.15;;;2.72;;
79454;SDS011;68900;52.134;5.420;2024-02-21T02:33:03;11.40;;;3.20;;
79454;SDS011;68900;52.134;5.420;2024-02-21T02:35:31;8.43;;;2.92;;
79454;SDS011;68900;52.134;5.420;2024-02-21T02:37:58;14.80;;;3.60;;
79454;SDS011;68900;52.134;5.420;2024-02-21T02:40:25;7.90;;;3.10;;
79454;SDS011;68900;52.134;5.420;2024-02-21T02:42:51;10.52;;;3.10;;
79454;SDS011;68900;52.134;5.420;2024-02-21T02:45:21;10.55;;;3.33;;
79454;SDS011;68900;52.134;5.420;2024-02-21T02:47:53;14.32;;;3.33;;
79454;SDS011;68900;52.134;5.420;2024-02-21T02:50:28;7.75;;;3.17;;
79454;SDS011;68900;52.134;5.420;2024-02-21T02:52:55;10.57;;;3.42;;
79454;SDS011;68900;52.134;5.420;2024-02-21T02:55:22;10.80;;;3.03;;
79454;SDS011;68900;52.134;5.420;2024-02-21T02:57:49;13.02;;;3.50;;
79454;SDS011;68900;52.134;5.420;2024-02-21T03:00:15;7.53;;;3.05;;
79454;SDS011;68900;52.134;5.420;2024-02-21T03:02:43;6.68;;;3.00;;
79454;SDS011;68900;52.134;5.420;2024-02-21T03:05:13;10.18;;;2.83;;
79454;SDS011;68900;52.134;5.420;2024-02-21T03:07:42;14.23;;;3.13;;
79454;SDS011;68900;52.134;5.420;2024-02-21T03:10:09;9.07;;;3.15;;
79454;SDS011;68900;52.134;5.420;2024-02-21T03:12:37;10.63;;;3.10;;
79454;SDS011;68900;52.134;5.420;2024-02-21T03:15:04;10.52;;;3.10;;
79454;SDS011;68900;52.134;5.420;2024-02-21T03:17:31;10.52;;;3.50;;
79454;SDS011;68900;52.134;5.420;2024-02-21T03:20:01;8.63;;;2.75;;
79454;SDS011;68900;52.134;5.420;2024-02-21T03:22:31;7.78;;;3.00;;
79454;SDS011;68900;52.134;5.420;2024-02-21T03:25:01;8.98;;;2.97;;
79454;SDS011;68900;52.134;5.420;2024-02-21T03:27:27;11.38;;;2.85;;
79454;SDS011;68900;52.134;5.420;2024-02-21T03:29:54;9.15;;;2.88;;
79454;SDS011;68900;52.134;5.420;2024-02-21T03:32:20;11.65;;;3.35;;
79454;SDS011;68900;52.134;5.420;2024-02-21T03:34:47;10.57;;;2.80;;
79454;SDS011;68900;52.134;5.420;2024-02-21T03:37:14;11.32;;;3.20;;
79454;SDS011;68900;52.134;5.420;2024-02-21T03:39:41;9.10;;;3.08;;
79454;SDS011;68900;52.134;5.420;2024-02-21T03:42:08;9.88;;;3.33;;
79454;SDS011;68900;52.134;5.420;2024-02-21T03:44:34;10.90;;;3.28;;
79454;SDS011;68900;52.134;5.420;2024-02-21T03:47:01;11.32;;;3.55;;
79454;SDS011;68900;52.134;5.420;2024-02-21T03:49:28;11.35;;;3.50;;
79454;SDS011;68900;52.134;5.420;2024-02-21T03:51:55;12.45;;;3.78;;
79454;SDS011;68900;52.134;5.420;2024-02-21T03:54:22;10.20;;;3.85;;
79454;SDS011;68900;52.134;5.420;2024-02-21T03:56:48;11.02;;;3.75;;
79454;SDS011;68900;52.134;5.420;2024-02-21T03:59:15;9.77;;;3.25;;
79454;SDS011;68900;52.134;5.420;2024-02-21T04:01:42;11.40;;;3.08;;
79454;SDS011;68900;52.134;5.420;2024-02-21T04:04:09;11.45;;;3.17;;
79454;SDS011;68900;52.134;5.420;2024-02-21T04:06:36;11.05;;;3.85;;
79454;SDS011;68900;52.134;5.420;2024-02-21T04:09:03;10.43;;;3.33;;
79454;SDS011;68900;52.134;5.420;2024-02-21T04:11:36;11.73;;;3.30;;
79454;SDS011;68900;52.134;5.420;2024-02-21T04:14:02;11.32;;;3.20;;
79454;SDS011;68900;52.134;5.420;2024-02-21T04:16:29;9.02;;;3.00;;
79454;SDS011;68900;52.134;5.420;2024-02-21T04:18:55;6.90;;;2.63;;
79454;SDS011;68900;52.134;5.420;2024-02-21T04:21:21;8.88;;;2.55;;
79454;SDS011;68900;52.134;5.420;2024-02-21T04:23:48;10.88;;;3.80;;
79454;SDS011;68900;52.134;5.420;2024-02-21T04:26:14;10.95;;;3.30;;
79454;SDS011;68900;52.134;5.420;2024-02-21T04:28:41;8.52;;;3.05;;
79454;SDS011;68900;52.134;5.420;2024-02-21T04:31:08;10.05;;;3.47;;
79454;SDS011;68900;52.134;5.420;2024-02-21T04:33:34;9.13;;;3.50;;
79454;SDS011;68900;52.134;5.420;2024-02-21T04:36:01;11.13;;;3.38;;
79454;SDS011;68900;52.134;5.420;2024-02-21T04:38:28;13.48;;;3.50;;
79454;SDS011;68900;52.134;5.420;2024-02-21T04:40:55;14.90;;;3.45;;
79454;SDS011;68900;52.134;5.420;2024-02-21T04:43:25;9.10;;;3.15;;
79454;SDS011;68900;52.134;5.420;2024-02-21T04:45:51;10.18;;;3.55;;
79454;SDS011;68900;52.134;5.420;2024-02-21T04:48:19;9.40;;;3.33;;
79454;SDS011;68900;52.134;5.420;2024-02-21T04:50:49;7.80;;;2.72;;
79454;SDS011;68900;52.134;5.420;2024-02-21T04:53:15;10.18;;;2.85;;
79454;SDS011;68900;52.134;5.420;2024-02-21T04:55:42;12.68;;;3.63;;
79454;SDS011;68900;52.134;5.420;2024-02-21T04:58:09;10.70;;;3.65;;
79454;SDS011;68900;52.134;5.420;2024-02-21T05:00:35;8.35;;;3.30;;
79454;SDS011;68900;52.134;5.420;2024-02-21T05:03:04;11.05;;;3.50;;
79454;SDS011;68900;52.134;5.420;2024-02-21T05:05:31;10.13;;;3.40;;
79454;SDS011;68900;52.134;5.420;2024-02-21T05:07:57;12.23;;;3.55;;
79454;SDS011;68900;52.134;5.420;2024-02-21T05:10:24;9.05;;;3.33;;
79454;SDS011;68900;52.134;5.420;2024-02-21T05:12:51;11.55;;;3.40;;
79454;SDS011;68900;52.134;5.420;2024-02-21T05:15:17;11.45;;;3.55;;
79454;SDS011;68900;52.134;5.420;2024-02-21T05:17:44;8.15;;;3.50;;
79454;SDS011;68900;52.134;5.420;2024-02-21T05:20:10;12.43;;;3.90;;
79454;SDS011;68900;52.134;5.420;2024-02-21T05:22:37;11.73;;;4.00;;
79454;SDS011;68900;52.134;5.420;2024-02-21T05:25:04;11.50;;;4.00;;
79454;SDS011;68900;52.134;5.420;2024-02-21T05:27:31;9.57;;;3.33;;
79454;SDS011;68900;52.134;5.420;2024-02-21T05:29:57;11.60;;;3.53;;
79454;SDS011;68900;52.134;5.420;2024-02-21T05:32:25;13.30;;;4.10;;
79454;SDS011;68900;52.134;5.420;2024-02-21T05:34:55;8.57;;;3.35;;
79454;SDS011;68900;52.134;5.420;2024-02-21T05:37:21;9.65;;;3.75;;
79454;SDS011;68900;52.134;5.420;2024-02-21T05:39:48;9.63;;;3.75;;
79454;SDS011;68900;52.134;5.420;2024-02-21T05:42:14;8.65;;;3.45;;
79454;SDS011;68900;52.134;5.420;2024-02-21T05:44:40;8.48;;;3.13;;
79454;SDS011;68900;52.134;5.420;2024-02-21T05:47:07;11.13;;;3.72;;
79454;SDS011;68900;52.134;5.420;2024-02-21T05:49:39;8.50;;;3.38;;
79454;SDS011;68900;52.134;5.420;2024-02-21T05:52:06;9.75;;;4.07;;
79454;SDS011;68900;52.134;5.420;2024-02-21T05:54:32;10.80;;;3.90;;
79454;SDS011;68900;52.134;5.420;2024-02-21T05:56:59;10.85;;;3.65;;
79454;SDS011;68900;52.134;5.420;2024-02-21T05:59:25;12.48;;;3.80;;
79454;SDS011;68900;52.134;5.420;2024-02-21T06:01:58;9.68;;;4.15;;
79454;SDS011;68900;52.134;5.420;2024-02-21T06:04:24;8.13;;;4.03;;
79454;SDS011;68900;52.134;5.420;2024-02-21T06:06:51;10.43;;;4.13;;
79454;SDS011;68900;52.134;5.420;2024-02-21T06:09:20;13.40;;;4.15;;
79454;SDS011;68900;52.134;5.420;2024-02-21T06:11:46;8.55;;;4.25;;
79454;SDS011;68900;52.134;5.420;2024-02-21T06:14:15;10.77;;;4.65;;
79454;SDS011;68900;52.134;5.420;2024-02-21T06:16:43;10.27;;;4.53;;
79454;SDS011;68900;52.134;5.420;2024-02-21T06:19:09;9.43;;;4.50;;
79454;SDS011;68900;52.134;5.420;2024-02-21T06:21:36;15.43;;;4.70;;
79454;SDS011;68900;52.134;5.420;2024-02-21T06:24:03;12.73;;;4.70;;
79454;SDS011;68900;52.134;5.420;2024-02-21T06:26:32;9.45;;;4.43;;
79454;SDS011;68900;52.134;5.420;2024-02-21T06:31:28;9.05;;;4.07;;
79454;SDS011;68900;52.134;5.420;2024-02-21T06:33:56;12.38;;;3.97;;
79454;SDS011;68900;52.134;5.420;2024-02-21T06:36:22;10.80;;;4.43;;
79454;SDS011;68900;52.134;5.420;2024-02-21T06:38:48;12.30;;;5.22;;
79454;SDS011;68900;52.134;5.420;2024-02-21T06:41:16;11.27;;;5.22;;
79454;SDS011;68900;52.134;5.420;2024-02-21T06:43:47;15.40;;;5.85;;
79454;SDS011;68900;52.134;5.420;2024-02-21T06:48:51;13.02;;;5.88;;
79454;SDS011;68900;52.134;5.420;2024-02-21T06:51:18;14.43;;;5.85;;
79454;SDS011;68900;52.134;5.420;2024-02-21T06:53:47;15.57;;;6.63;;
79454;SDS011;68900;52.134;5.420;2024-02-21T06:56:17;11.13;;;5.82;;
79454;SDS011;68900;52.134;5.420;2024-02-21T06:58:44;16.85;;;6.60;;
79454;SDS011;68900;52.134;5.420;2024-02-21T07:01:10;17.33;;;7.03;;
79454;SDS011;68900;52.134;5.420;2024-02-21T07:03:37;15.88;;;6.97;;
79454;SDS011;68900;52.134;5.420;2024-02-21T07:06:04;12.73;;;6.35;;
79454;SDS011;68900;52.134;5.420;2024-02-21T07:08:31;15.63;;;7.20;;
79454;SDS011;68900;52.134;5.420;2024-02-21T07:10:57;15.35;;;7.00;;
79454;SDS011;68900;52.134;5.420;2024-02-21T07:13:24;16.13;;;7.28;;
79454;SDS011;68900;52.134;5.420;2024-02-21T07:15:50;17.48;;;7.60;;
79454;SDS011;68900;52.134;5.420;2024-02-21T07:18:17;13.27;;;6.70;;
79454;SDS011;68900;52.134;5.420;2024-02-21T07:20:44;17.67;;;7.25;;
79454;SDS011;68900;52.134;5.420;2024-02-21T07:23:10;21.08;;;7.63;;
79454;SDS011;68900;52.134;5.420;2024-02-21T07:25:37;17.90;;;6.90;;
79454;SDS011;68900;52.134;5.420;2024-02-21T07:28:05;16.95;;;6.28;;
79454;SDS011;68900;52.134;5.420;2024-02-21T07:30:33;15.80;;;6.95;;
79454;SDS011;68900;52.134;5.420;2024-02-21T07:32:59;19.60;;;7.13;;
79454;SDS011;68900;52.134;5.420;2024-02-21T07:35:26;19.58;;;6.45;;
79454;SDS011;68900;52.134;5.420;2024-02-21T07:37:53;14.25;;;6.13;;
79454;SDS011;68900;52.134;5.420;2024-02-21T07:40:19;13.90;;;5.88;;
79454;SDS011;68900;52.134;5.420;2024-02-21T07:42:46;17.88;;;6.50;;
79454;SDS011;68900;52.134;5.420;2024-02-21T07:45:17;16.40;;;5.75;;
79454;SDS011;68900;52.134;5.420;2024-02-21T07:47:44;13.88;;;5.55;;
79454;SDS011;68900;52.134;5.420;2024-02-21T07:50:11;13.75;;;5.50;;
79454;SDS011;68900;52.134;5.420;2024-02-21T07:52:37;16.05;;;5.50;;
79454;SDS011;68900;52.134;5.420;2024-02-21T07:55:04;15.60;;;5.45;;
79454;SDS011;68900;52.134;5.420;2024-02-21T07:57:31;14.90;;;5.00;;
79454;SDS011;68900;52.134;5.420;2024-02-21T07:59:57;16.67;;;5.65;;
79454;SDS011;68900;52.134;5.420;2024-02-21T08:02:24;16.10;;;5.47;;
79454;SDS011;68900;52.134;5.420;2024-02-21T08:04:50;14.57;;;4.95;;
79454;SDS011;68900;52.134;5.420;2024-02-21T08:07:20;16.52;;;5.45;;
79454;SDS011;68900;52.134;5.420;2024-02-21T08:09:46;12.18;;;5.18;;
79454;SDS011;68900;52.134;5.420;2024-02-21T08:12:13;14.93;;;5.43;;
79454;SDS011;68900;52.134;5.420;2024-02-21T08:14:39;14.00;;;5.30;;
79454;SDS011;68900;52.134;5.420;2024-02-21T08:17:06;15.63;;;5.55;;
79454;SDS011;68900;52.134;5.420;2024-02-21T08:19:32;15.48;;;5.28;;
79454;SDS011;68900;52.134;5.420;2024-02-21T08:21:59;12.27;;;5.50;;
79454;SDS011;68900;52.134;5.420;2024-02-21T08:24:26;16.80;;;5.95;;
79454;SDS011;68900;52.134;5.420;2024-02-21T08:26:54;14.48;;;5.10;;
79454;SDS011;68900;52.134;5.420;2024-02-21T08:29:21;15.70;;;5.25;;
79454;SDS011;68900;52.134;5.420;2024-02-21T08:31:48;13.25;;;5.18;;
79454;SDS011;68900;52.134;5.420;2024-02-21T08:37:01;13.45;;;5.72;;
79454;SDS011;68900;52.134;5.420;2024-02-21T08:39:28;16.58;;;5.95;;
79454;SDS011;68900;52.134;5.420;2024-02-21T08:41:56;13.07;;;6.00;;
79454;SDS011;68900;52.134;5.420;2024-02-21T08:44:23;13.20;;;5.95;;
79454;SDS011;68900;52.134;5.420;2024-02-21T08:46:52;16.48;;;6.05;;
79454;SDS011;68900;52.134;5.420;2024-02-21T08:49:19;14.18;;;5.88;;
79454;SDS011;68900;52.134;5.420;2024-02-21T08:51:45;15.05;;;5.97;;
79454;SDS011;68900;52.134;5.420;2024-02-21T08:54:12;17.42;;;5.90;;
79454;SDS011;68900;52.134;5.420;2024-02-21T08:56:39;17.95;;;6.05;;
79454;SDS011;68900;52.134;5.420;2024-02-21T08:59:05;12.18;;;5.63;;
79454;SDS011;68900;52.134;5.420;2024-02-21T09:01:32;17.38;;;6.30;;
79454;SDS011;68900;52.134;5.420;2024-02-21T09:04:00;14.02;;;5.65;;
79454;SDS011;68900;52.134;5.420;2024-02-21T09:06:27;14.73;;;5.60;;
79454;SDS011;68900;52.134;5.420;2024-02-21T09:08:56;20.75;;;6.10;;
79454;SDS011;68900;52.134;5.420;2024-02-21T09:11:23;12.57;;;5.82;;
79454;SDS011;68900;52.134;5.420;2024-02-21T09:13:50;15.48;;;5.95;;
79454;SDS011;68900;52.134;5.420;2024-02-21T09:16:16;14.15;;;5.47;;
79454;SDS011;68900;52.134;5.420;2024-02-21T09:18:43;11.43;;;5.18;;
79454;SDS011;68900;52.134;5.420;2024-02-21T09:21:09;13.45;;;4.85;;
79454;SDS011;68900;52.134;5.420;2024-02-21T09:23:36;12.00;;;5.32;;
79454;SDS011;68900;52.134;5.420;2024-02-21T09:26:02;9.30;;;5.10;;
79454;SDS011;68900;52.134;5.420;2024-02-21T09:28:30;14.02;;;5.28;;
79454;SDS011;68900;52.134;5.420;2024-02-21T09:30:57;13.82;;;5.03;;
79454;SDS011;68900;52.134;5.420;2024-02-21T09:33:23;12.82;;;4.93;;
79454;SDS011;68900;52.134;5.420;2024-02-21T09:35:58;11.80;;;4.72;;
79454;SDS011;68900;52.134;5.420;2024-02-21T09:38:24;15.77;;;4.85;;
79454;SDS011;68900;52.134;5.420;2024-02-21T09:40:58;11.10;;;4.20;;
79454;SDS011;68900;52.134;5.420;2024-02-21T09:43:27;11.20;;;4.97;;
79454;SDS011;68900;52.134;5.420;2024-02-21T09:45:55;10.68;;;4.43;;
79454;SDS011;68900;52.134;5.420;2024-02-21T09:51:12;11.57;;;4.53;;
79454;SDS011;68900;52.134;5.420;2024-02-21T09:53:41;12.73;;;5.15;;
79454;SDS011;68900;52.134;5.420;2024-02-21T09:56:20;11.73;;;4.53;;
79454;SDS011;68900;52.134;5.420;2024-02-21T09:58:50;12.27;;;4.18;;
79454;SDS011;68900;52.134;5.420;2024-02-21T10:01:16;12.48;;;4.63;;
79454;SDS011;68900;52.134;5.420;2024-02-21T10:03:59;13.07;;;4.72;;
79454;SDS011;68900;52.134;5.420;2024-02-21T10:06:28;10.68;;;4.50;;
79454;SDS011;68900;52.134;5.420;2024-02-21T10:08:55;11.52;;;4.22;;
79454;SDS011;68900;52.134;5.420;2024-02-21T10:11:22;10.45;;;4.35;;
79454;SDS011;68900;52.134;5.420;2024-02-21T10:13:49;11.70;;;4.10;;
79454;SDS011;68900;52.134;5.420;2024-02-21T10:16:16;9.23;;;3.85;;
79454;SDS011;68900;52.134;5.420;2024-02-21T10:18:43;10.57;;;3.58;;
79454;SDS011;68900;52.134;5.420;2024-02-21T10:21:09;10.85;;;3.78;;
79454;SDS011;68900;52.134;5.420;2024-02-21T10:23:46;8.93;;;3.45;;
79454;SDS011;68900;52.134;5.420;2024-02-21T10:26:17;13.55;;;3.67;;
79454;SDS011;68900;52.134;5.420;2024-02-21T10:28:45;11.93;;;3.95;;
79454;SDS011;68900;52.134;5.420;2024-02-21T10:31:31;10.68;;;3.33;;
79454;SDS011;68900;52.134;5.420;2024-02-21T10:33:58;9.43;;;3.25;;
79454;SDS011;68900;52.134;5.420;2024-02-21T10:36:29;8.57;;;3.47;;
79454;SDS011;68900;52.134;5.420;2024-02-21T10:38:56;9.13;;;3.88;;
79454;SDS011;68900;52.134;5.420;2024-02-21T10:41:23;7.22;;;3.00;;
79454;SDS011;68900;52.134;5.420;2024-02-21T10:43:53;8.45;;;3.30;;
79454;SDS011;68900;52.134;5.420;2024-02-21T10:46:22;7.50;;;3.22;;
79454;SDS011;68900;52.134;5.420;2024-02-21T10:48:57;9.10;;;3.30;;
79454;SDS011;68900;52.134;5.420;2024-02-21T10:51:43;8.43;;;3.10;;
79454;SDS011;68900;52.134;5.420;2024-02-21T10:56:50;6.05;;;2.83;;
79454;SDS011;68900;52.134;5.420;2024-02-21T10:59:18;8.35;;;3.10;;
79454;SDS011;68900;52.134;5.420;2024-02-21T11:01:44;8.43;;;3.08;;
79454;SDS011;68900;52.134;5.420;2024-02-21T11:04:11;5.47;;;2.60;;
79454;SDS011;68900;52.134;5.420;2024-02-21T11:06:41;8.50;;;3.55;;
79454;SDS011;68900;52.134;5.420;2024-02-21T11:09:09;6.75;;;3.00;;
79454;SDS011;68900;52.134;5.420;2024-02-21T11:11:37;7.80;;;3.33;;
79454;SDS011;68900;52.134;5.420;2024-02-21T11:14:10;6.88;;;3.17;;
79454;SDS011;68900;52.134;5.420;2024-02-21T11:16:43;7.80;;;3.40;;
79454;SDS011;68900;52.134;5.420;2024-02-21T11:19:18;6.30;;;3.15;;
79454;SDS011;68900;52.134;5.420;2024-02-21T11:21:47;8.10;;;3.72;;
79454;SDS011;68900;52.134;5.420;2024-02-21T11:24:25;9.35;;;3.53;;
79454;SDS011;68900;52.134;5.420;2024-02-21T11:26:53;7.60;;;3.58;;
79454;SDS011;68900;52.134;5.420;2024-02-21T11:29:24;8.90;;;3.38;;
79454;SDS011;68900;52.134;5.420;2024-02-21T11:31:54;8.32;;;3.67;;
79454;SDS011;68900;52.134;5.420;2024-02-21T11:34:21;7.82;;;3.30;;
79454;SDS011;68900;52.134;5.420;2024-02-21T11:36:51;8.20;;;3.38;;
79454;SDS011;68900;52.134;5.420;2024-02-21T11:39:19;6.53;;;3.20;;
79454;SDS011;68900;52.134;5.420;2024-02-21T11:41:47;8.32;;;3.97;;
79454;SDS011;68900;52.134;5.420;2024-02-21T11:44:26;7.22;;;3.83;;
79454;SDS011;68900;52.134;5.420;2024-02-21T11:46:52;8.13;;;3.78;;
79454;SDS011;68900;52.134;5.420;2024-02-21T11:49:19;8.00;;;3.80;;
79454;SDS011;68900;52.134;5.420;2024-02-21T11:51:45;6.68;;;3.67;;
79454;SDS011;68900;52.134;5.420;2024-02-21T11:54:12;8.90;;;4.00;;
79454;SDS011;68900;52.134;5.420;2024-02-21T11:56:42;9.20;;;3.70;;
79454;SDS011;68900;52.134;5.420;2024-02-21T11:59:08;9.18;;;3.88;;
79454;SDS011;68900;52.134;5.420;2024-02-21T12:01:35;7.75;;;3.65;;
79454;SDS011;68900;52.134;5.420;2024-02-21T12:04:01;8.20;;;4.07;;
79454;SDS011;68900;52.134;5.420;2024-02-21T12:06:29;9.60;;;4.10;;
79454;SDS011;68900;52.134;5.420;2024-02-21T12:08:57;8.30;;;3.90;;
79454;SDS011;68900;52.134;5.420;2024-02-21T12:11:25;9.45;;;3.80;;
79454;SDS011;68900;52.134;5.420;2024-02-21T12:14:01;11.40;;;4.28;;
79454;SDS011;68900;52.134;5.420;2024-02-21T12:16:30;8.63;;;3.97;;
79454;SDS011;68900;52.134;5.420;2024-02-21T12:19:00;10.10;;;4.00;;
79454;SDS011;68900;52.134;5.420;2024-02-21T12:21:29;8.55;;;3.35;;
79454;SDS011;68900;52.134;5.420;2024-02-21T12:23:56;8.48;;;3.90;;
79454;SDS011;68900;52.134;5.420;2024-02-21T12:26:23;8.00;;;3.40;;
79454;SDS011;68900;52.134;5.420;2024-02-21T12:28:50;8.48;;;4.03;;
79454;SDS011;68900;52.134;5.420;2024-02-21T12:31:19;9.73;;;4.25;;
79454;SDS011;68900;52.134;5.420;2024-02-21T12:33:45;10.77;;;4.10;;
79454;SDS011;68900;52.134;5.420;2024-02-21T12:36:14;7.65;;;3.50;;
79454;SDS011;68900;52.134;5.420;2024-02-21T12:38:44;10.02;;;3.60;;
79454;SDS011;68900;52.134;5.420;2024-02-21T12:41:12;9.75;;;3.65;;
79454;SDS011;68900;52.134;5.420;2024-02-21T12:43:39;8.30;;;3.72;;
79454;SDS011;68900;52.134;5.420;2024-02-21T12:46:06;7.35;;;3.67;;
79454;SDS011;68900;52.134;5.420;2024-02-21T12:48:33;9.90;;;3.30;;
79454;SDS011;68900;52.134;5.420;2024-02-21T12:51:00;10.88;;;3.33;;
79454;SDS011;68900;52.134;5.420;2024-02-21T12:53:26;7.03;;;3.55;;
79454;SDS011;68900;52.134;5.420;2024-02-21T12:55:59;8.95;;;3.35;;
79454;SDS011;68900;52.134;5.420;2024-02-21T12:58:28;8.18;;;3.22;;
79454;SDS011;68900;52.134;5.420;2024-02-21T13:00:57;9.80;;;3.30;;
79454;SDS011;68900;52.134;5.420;2024-02-21T13:03:24;7.93;;;3.22;;
79454;SDS011;68900;52.134;5.420;2024-02-21T13:05:56;7.95;;;3.17;;
79454;SDS011;68900;52.134;5.420;2024-02-21T13:08:22;6.90;;;2.92;;
79454;SDS011;68900;52.134;5.420;2024-02-21T13:10:49;8.45;;;3.20;;
79454;SDS011;68900;52.134;5.420;2024-02-21T13:13:23;6.88;;;3.10;;
79454;SDS011;68900;52.134;5.420;2024-02-21T13:18:16;9.48;;;3.17;;
79454;SDS011;68900;52.134;5.420;2024-02-21T13:20:43;9.27;;;2.95;;
79454;SDS011;68900;52.134;5.420;2024-02-21T13:23:09;8.02;;;2.75;;
79454;SDS011;68900;52.134;5.420;2024-02-21T13:25:36;8.88;;;3.47;;
79454;SDS011;68900;52.134;5.420;2024-02-21T13:28:02;7.63;;;2.88;;
79454;SDS011;68900;52.134;5.420;2024-02-21T13:30:29;6.85;;;2.70;;
79454;SDS011;68900;52.134;5.420;2024-02-21T13:32:55;8.02;;;2.85;;
79454;SDS011;68900;52.134;5.420;2024-02-21T13:35:22;10.95;;;3.08;;
79454;SDS011;68900;52.134;5.420;2024-02-21T13:37:49;8.00;;;2.65;;
79454;SDS011;68900;52.134;5.420;2024-02-21T13:40:16;6.25;;;2.60;;
79454;SDS011;68900;52.134;5.420;2024-02-21T13:42:43;7.50;;;2.80;;
79454;SDS011;68900;52.134;5.420;2024-02-21T13:45:09;8.77;;;2.67;;
79454;SDS011;68900;52.134;5.420;2024-02-21T13:47:36;7.35;;;2.85;;
79454;SDS011;68900;52.134;5.420;2024-02-21T13:50:02;9.57;;;2.83;;
79454;SDS011;68900;52.134;5.420;2024-02-21T13:52:37;6.90;;;2.50;;
79454;SDS011;68900;52.134;5.420;2024-02-21T13:55:04;9.48;;;2.60;;
79454;SDS011;68900;52.134;5.420;2024-02-21T13:57:30;8.77;;;2.72;;
79454;SDS011;68900;52.134;5.420;2024-02-21T13:59:57;8.10;;;2.70;;
79454;SDS011;68900;52.134;5.420;2024-02-21T14:02:23;8.35;;;2.63;;
79454;SDS011;68900;52.134;5.420;2024-02-21T14:04:50;6.50;;;2.40;;
79454;SDS011;68900;52.134;5.420;2024-02-21T14:07:17;8.15;;;2.30;;
79454;SDS011;68900;52.134;5.420;2024-02-21T14:09:43;6.13;;;2.40;;
79454;SDS011;68900;52.134;5.420;2024-02-21T14:12:10;5.43;;;2.10;;
79454;SDS011;68900;52.134;5.420;2024-02-21T14:14:36;8.85;;;2.40;;
79454;SDS011;68900;52.134;5.420;2024-02-21T14:19:32;6.40;;;2.17;;
79454;SDS011;68900;52.134;5.420;2024-02-21T14:21:59;8.20;;;2.05;;
79454;SDS011;68900;52.134;5.420;2024-02-21T14:24:25;8.15;;;2.60;;
79454;SDS011;68900;52.134;5.420;2024-02-21T14:26:54;7.38;;;2.13;;
79454;SDS011;68900;52.134;5.420;2024-02-21T14:29:22;7.18;;;2.13;;
79454;SDS011;68900;52.134;5.420;2024-02-21T14:31:48;8.32;;;2.60;;
79454;SDS011;68900;52.134;5.420;2024-02-21T14:34:15;7.65;;;2.10;;
79454;SDS011;68900;52.134;5.420;2024-02-21T14:36:50;7.28;;;2.25;;
79454;SDS011;68900;52.134;5.420;2024-02-21T14:39:17;8.05;;;2.40;;
79454;SDS011;68900;52.134;5.420;2024-02-21T14:41:43;7.20;;;2.30;;
79454;SDS011;68900;52.134;5.420;2024-02-21T14:44:10;8.10;;;2.35;;
79454;SDS011;68900;52.134;5.420;2024-02-21T14:46:37;8.75;;;2.10;;
79454;SDS011;68900;52.134;5.420;2024-02-21T14:49:06;6.82;;;2.33;;
79454;SDS011;68900;52.134;5.420;2024-02-21T14:51:33;5.40;;;1.95;;
79454;SDS011;68900;52.134;5.420;2024-02-21T14:54:00;10.63;;;2.53;;
79454;SDS011;68900;52.134;5.420;2024-02-21T14:56:26;5.38;;;2.08;;
79454;SDS011;68900;52.134;5.420;2024-02-21T14:58:53;5.60;;;2.15;;
79454;SDS011;68900;52.134;5.420;2024-02-21T15:01:24;7.35;;;2.40;;
79454;SDS011;68900;52.134;5.420;2024-02-21T15:03:50;5.82;;;2.15;;